sensor_id;sensor_type;location;lat;lon;timestamp;P1;durP1;ratioP1;P2;durP2;ratioP2
75639;SDS011;64233;51.486;6.332;2023-07-20T00:00:22;7.65;;;3.83;;
75639;SDS011;64233;51.486;6.332;2023-07-20T00:02:49;7.15;;;3.88;;
75639;SDS011;64233;51.486;6.332;2023-07-20T00:05:15;5.03;;;3.40;;
75639;SDS011;64233;51.486;6.332;2023-07-20T00:07:43;8.38;;;4.38;;
75639;SDS011;64233;51.486;6.332;2023-07-20T00:10:09;4.68;;;3.17;;
75639;SDS011;64233;51.486;6.332;2023-07-20T00:12:34;5.55;;;3.38;;
75639;SDS011;64233;51.486;6.332;2023-07-20T00:15:00;5.68;;;3.40;;
75639;SDS011;64233;51.486;6.332;2023-07-20T00:17:25;7.10;;;3.83;;
75639;SDS011;64233;51.486;6.332;2023-07-20T00:19:51;5.40;;;3.72;;
75639;SDS011;64233;51.486;6.332;2023-07-20T00:22:16;3.60;;;2.92;;
75639;SDS011;64233;51.486;6.332;2023-07-20T00:24:41;7.00;;;2.97;;
75639;SDS011;64233;51.486;6.332;2023-07-20T00:27:06;7.18;;;3.35;;
75639;SDS011;64233;51.486;6.332;2023-07-20T00:29:32;3.95;;;2.80;;
75639;SDS011;64233;51.486;6.332;2023-07-20T00:31:58;4.87;;;2.87;;
75639;SDS011;64233;51.486;6.332;2023-07-20T00:34:23;5.50;;;3.10;;
75639;SDS011;64233;51.486;6.332;2023-07-20T00:36:48;6.03;;;3.40;;
75639;SDS011;64233;51.486;6.332;2023-07-20T00:39:14;5.97;;;3.33;;
75639;SDS011;64233;51.486;6.332;2023-07-20T00:41:39;6.13;;;3.00;;
75639;SDS011;64233;51.486;6.332;2023-07-20T00:44:05;3.50;;;2.85;;
75639;SDS011;64233;51.486;6.332;2023-07-20T00:46:30;8.75;;;3.97;;
75639;SDS011;64233;51.486;6.332;2023-07-20T00:48:57;5.43;;;2.85;;
75639;SDS011;64233;51.486;6.332;2023-07-20T00:51:23;8.52;;;3.55;;
75639;SDS011;64233;51.486;6.332;2023-07-20T00:53:51;5.68;;;3.15;;
75639;SDS011;64233;51.486;6.332;2023-07-20T00:56:17;4.45;;;3.10;;
75639;SDS011;64233;51.486;6.332;2023-07-20T00:58:42;5.07;;;3.05;;
75639;SDS011;64233;51.486;6.332;2023-07-20T01:01:08;6.90;;;3.25;;
75639;SDS011;64233;51.486;6.332;2023-07-20T01:03:34;4.18;;;3.28;;
75639;SDS011;64233;51.486;6.332;2023-07-20T01:06:05;5.35;;;3.28;;
75639;SDS011;64233;51.486;6.332;2023-07-20T01:14:24;10.40;;;3.88;;
75639;SDS011;64233;51.486;6.332;2023-07-20T01:16:50;5.85;;;3.47;;
75639;SDS011;64233;51.486;6.332;2023-07-20T01:19:17;8.00;;;4.00;;
75639;SDS011;64233;51.486;6.332;2023-07-20T01:21:45;7.60;;;3.75;;
75639;SDS011;64233;51.486;6.332;2023-07-20T01:24:23;4.90;;;3.33;;
75639;SDS011;64233;51.486;6.332;2023-07-20T01:30:01;6.82;;;3.63;;
75639;SDS011;64233;51.486;6.332;2023-07-20T01:32:38;5.03;;;3.43;;
75639;SDS011;64233;51.486;6.332;2023-07-20T01:35:07;7.93;;;3.40;;
75639;SDS011;64233;51.486;6.332;2023-07-20T01:37:34;7.00;;;4.22;;
75639;SDS011;64233;51.486;6.332;2023-07-20T01:40:02;4.47;;;3.60;;
75639;SDS011;64233;51.486;6.332;2023-07-20T01:42:27;8.48;;;4.07;;
75639;SDS011;64233;51.486;6.332;2023-07-20T01:44:52;6.65;;;3.85;;
75639;SDS011;64233;51.486;6.332;2023-07-20T01:47:18;5.05;;;3.70;;
75639;SDS011;64233;51.486;6.332;2023-07-20T01:49:44;8.15;;;4.25;;
75639;SDS011;64233;51.486;6.332;2023-07-20T01:52:09;5.90;;;3.72;;
75639;SDS011;64233;51.486;6.332;2023-07-20T01:54:34;8.80;;;5.00;;
75639;SDS011;64233;51.486;6.332;2023-07-20T01:56:59;8.02;;;4.10;;
75639;SDS011;64233;51.486;6.332;2023-07-20T01:59:25;7.07;;;3.87;;
75639;SDS011;64233;51.486;6.332;2023-07-20T02:01:50;4.70;;;3.37;;
75639;SDS011;64233;51.486;6.332;2023-07-20T02:04:15;5.68;;;3.83;;
75639;SDS011;64233;51.486;6.332;2023-07-20T02:06:40;8.83;;;4.43;;
75639;SDS011;64233;51.486;6.332;2023-07-20T02:09:06;7.80;;;4.32;;
75639;SDS011;64233;51.486;6.332;2023-07-20T02:11:31;7.90;;;4.05;;
75639;SDS011;64233;51.486;6.332;2023-07-20T02:13:56;5.25;;;3.97;;
75639;SDS011;64233;51.486;6.332;2023-07-20T02:16:21;7.88;;;4.15;;
75639;SDS011;64233;51.486;6.332;2023-07-20T02:18:47;8.57;;;4.30;;
75639;SDS011;64233;51.486;6.332;2023-07-20T02:21:12;9.77;;;5.03;;
75639;SDS011;64233;51.486;6.332;2023-07-20T02:23:38;5.78;;;4.13;;
75639;SDS011;64233;51.486;6.332;2023-07-20T02:26:03;9.20;;;4.27;;
75639;SDS011;64233;51.486;6.332;2023-07-20T02:28:28;7.23;;;4.33;;
75639;SDS011;64233;51.486;6.332;2023-07-20T02:30:54;6.50;;;4.15;;
75639;SDS011;64233;51.486;6.332;2023-07-20T02:33:19;8.77;;;5.10;;
75639;SDS011;64233;51.486;6.332;2023-07-20T02:35:45;8.35;;;4.72;;
75639;SDS011;64233;51.486;6.332;2023-07-20T02:38:11;6.43;;;4.32;;
75639;SDS011;64233;51.486;6.332;2023-07-20T02:40:36;6.70;;;4.63;;
75639;SDS011;64233;51.486;6.332;2023-07-20T02:43:01;8.65;;;5.05;;
75639;SDS011;64233;51.486;6.332;2023-07-20T02:45:26;7.03;;;4.50;;
75639;SDS011;64233;51.486;6.332;2023-07-20T02:47:52;7.22;;;4.88;;
75639;SDS011;64233;51.486;6.332;2023-07-20T02:50:17;5.70;;;4.28;;
75639;SDS011;64233;51.486;6.332;2023-07-20T02:52:42;9.43;;;4.35;;
75639;SDS011;64233;51.486;6.332;2023-07-20T02:55:08;12.33;;;4.73;;
75639;SDS011;64233;51.486;6.332;2023-07-20T02:57:33;6.75;;;4.22;;
75639;SDS011;64233;51.486;6.332;2023-07-20T02:59:58;10.10;;;4.38;;
75639;SDS011;64233;51.486;6.332;2023-07-20T03:02:24;5.75;;;3.97;;
75639;SDS011;64233;51.486;6.332;2023-07-20T03:04:50;7.53;;;4.93;;
75639;SDS011;64233;51.486;6.332;2023-07-20T03:07:15;7.65;;;5.07;;
75639;SDS011;64233;51.486;6.332;2023-07-20T03:09:40;8.52;;;4.28;;
75639;SDS011;64233;51.486;6.332;2023-07-20T03:12:06;8.35;;;4.88;;
75639;SDS011;64233;51.486;6.332;2023-07-20T03:14:32;8.95;;;5.38;;
75639;SDS011;64233;51.486;6.332;2023-07-20T03:16:57;6.30;;;4.30;;
75639;SDS011;64233;51.486;6.332;2023-07-20T03:19:22;8.70;;;5.23;;
75639;SDS011;64233;51.486;6.332;2023-07-20T03:21:47;7.10;;;4.70;;
75639;SDS011;64233;51.486;6.332;2023-07-20T03:24:13;8.57;;;5.40;;
75639;SDS011;64233;51.486;6.332;2023-07-20T03:26:38;9.80;;;5.78;;
75639;SDS011;64233;51.486;6.332;2023-07-20T03:29:03;13.60;;;4.93;;
75639;SDS011;64233;51.486;6.332;2023-07-20T03:31:29;9.30;;;5.47;;
75639;SDS011;64233;51.486;6.332;2023-07-20T03:33:55;9.55;;;5.38;;
75639;SDS011;64233;51.486;6.332;2023-07-20T03:36:20;10.47;;;6.53;;
75639;SDS011;64233;51.486;6.332;2023-07-20T03:38:46;10.38;;;6.45;;
75639;SDS011;64233;51.486;6.332;2023-07-20T03:41:11;8.57;;;5.93;;
75639;SDS011;64233;51.486;6.332;2023-07-20T03:43:37;8.73;;;6.20;;
75639;SDS011;64233;51.486;6.332;2023-07-20T03:46:02;9.85;;;6.22;;
75639;SDS011;64233;51.486;6.332;2023-07-20T03:48:31;9.50;;;6.95;;
75639;SDS011;64233;51.486;6.332;2023-07-20T03:50:56;10.02;;;6.00;;
75639;SDS011;64233;51.486;6.332;2023-07-20T03:53:22;11.55;;;6.13;;
75639;SDS011;64233;51.486;6.332;2023-07-20T03:55:47;13.45;;;7.15;;
75639;SDS011;64233;51.486;6.332;2023-07-20T03:58:14;11.80;;;6.85;;
75639;SDS011;64233;51.486;6.332;2023-07-20T04:00:39;9.63;;;6.78;;
75639;SDS011;64233;51.486;6.332;2023-07-20T04:03:05;7.07;;;5.28;;
75639;SDS011;64233;51.486;6.332;2023-07-20T04:05:31;10.48;;;7.00;;
75639;SDS011;64233;51.486;6.332;2023-07-20T04:07:56;12.50;;;7.28;;
75639;SDS011;64233;51.486;6.332;2023-07-20T04:10:21;10.88;;;6.18;;
75639;SDS011;64233;51.486;6.332;2023-07-20T04:12:47;12.43;;;7.38;;
75639;SDS011;64233;51.486;6.332;2023-07-20T04:15:12;12.40;;;7.03;;
75639;SDS011;64233;51.486;6.332;2023-07-20T04:17:39;14.98;;;7.38;;
75639;SDS011;64233;51.486;6.332;2023-07-20T04:20:05;15.40;;;7.20;;
75639;SDS011;64233;51.486;6.332;2023-07-20T04:22:31;14.70;;;7.15;;
75639;SDS011;64233;51.486;6.332;2023-07-20T04:24:57;12.30;;;6.70;;
75639;SDS011;64233;51.486;6.332;2023-07-20T04:27:22;12.48;;;7.65;;
75639;SDS011;64233;51.486;6.332;2023-07-20T04:29:47;13.65;;;7.28;;
75639;SDS011;64233;51.486;6.332;2023-07-20T04:32:13;11.70;;;8.13;;
75639;SDS011;64233;51.486;6.332;2023-07-20T04:34:38;9.02;;;6.65;;
75639;SDS011;64233;51.486;6.332;2023-07-20T04:37:04;9.27;;;6.72;;
75639;SDS011;64233;51.486;6.332;2023-07-20T04:39:30;10.98;;;7.28;;
75639;SDS011;64233;51.486;6.332;2023-07-20T04:41:55;8.52;;;6.25;;
75639;SDS011;64233;51.486;6.332;2023-07-20T04:44:21;11.13;;;6.00;;
75639;SDS011;64233;51.486;6.332;2023-07-20T04:46:46;11.95;;;6.72;;
75639;SDS011;64233;51.486;6.332;2023-07-20T04:49:11;16.02;;;6.72;;
75639;SDS011;64233;51.486;6.332;2023-07-20T04:51:37;9.40;;;5.90;;
75639;SDS011;64233;51.486;6.332;2023-07-20T04:54:03;7.18;;;5.63;;
75639;SDS011;64233;51.486;6.332;2023-07-20T04:56:28;10.48;;;6.65;;
75639;SDS011;64233;51.486;6.332;2023-07-20T04:58:54;13.38;;;6.93;;
75639;SDS011;64233;51.486;6.332;2023-07-20T05:01:19;9.57;;;5.53;;
75639;SDS011;64233;51.486;6.332;2023-07-20T05:03:44;8.70;;;5.60;;
75639;SDS011;64233;51.486;6.332;2023-07-20T05:06:09;9.65;;;5.32;;
75639;SDS011;64233;51.486;6.332;2023-07-20T05:08:35;9.00;;;5.60;;
75639;SDS011;64233;51.486;6.332;2023-07-20T05:11:00;8.00;;;5.53;;
75639;SDS011;64233;51.486;6.332;2023-07-20T05:13:25;11.37;;;5.47;;
75639;SDS011;64233;51.486;6.332;2023-07-20T05:15:51;7.28;;;5.72;;
75639;SDS011;64233;51.486;6.332;2023-07-20T05:18:17;8.95;;;5.35;;
75639;SDS011;64233;51.486;6.332;2023-07-20T05:20:45;8.88;;;5.60;;
75639;SDS011;64233;51.486;6.332;2023-07-20T05:23:13;8.02;;;5.43;;
75639;SDS011;64233;51.486;6.332;2023-07-20T05:25:39;8.00;;;5.75;;
75639;SDS011;64233;51.486;6.332;2023-07-20T05:28:04;8.75;;;5.05;;
75639;SDS011;64233;51.486;6.332;2023-07-20T05:30:29;9.63;;;5.45;;
75639;SDS011;64233;51.486;6.332;2023-07-20T05:32:55;8.20;;;5.75;;
75639;SDS011;64233;51.486;6.332;2023-07-20T05:35:20;6.68;;;5.25;;
75639;SDS011;64233;51.486;6.332;2023-07-20T05:37:45;8.20;;;3.85;;
75639;SDS011;64233;51.486;6.332;2023-07-20T05:40:11;4.47;;;3.70;;
75639;SDS011;64233;51.486;6.332;2023-07-20T05:42:38;6.05;;;3.38;;
75639;SDS011;64233;51.486;6.332;2023-07-20T05:45:04;2.13;;;1.73;;
75639;SDS011;64233;51.486;6.332;2023-07-20T05:47:30;3.33;;;1.98;;
75639;SDS011;64233;51.486;6.332;2023-07-20T05:49:55;2.53;;;2.33;;
75639;SDS011;64233;51.486;6.332;2023-07-20T05:52:20;2.28;;;1.63;;
75639;SDS011;64233;51.486;6.332;2023-07-20T05:54:46;1.95;;;1.50;;
75639;SDS011;64233;51.486;6.332;2023-07-20T05:57:11;2.03;;;1.67;;
75639;SDS011;64233;51.486;6.332;2023-07-20T05:59:36;2.50;;;1.73;;
75639;SDS011;64233;51.486;6.332;2023-07-20T06:02:03;3.72;;;1.83;;
75639;SDS011;64233;51.486;6.332;2023-07-20T06:04:29;1.88;;;1.63;;
75639;SDS011;64233;51.486;6.332;2023-07-20T06:06:54;3.22;;;1.80;;
75639;SDS011;64233;51.486;6.332;2023-07-20T06:09:19;2.17;;;1.67;;
75639;SDS011;64233;51.486;6.332;2023-07-20T06:11:44;2.35;;;2.15;;
75639;SDS011;64233;51.486;6.332;2023-07-20T06:14:10;1.13;;;0.98;;
75639;SDS011;64233;51.486;6.332;2023-07-20T06:16:35;2.63;;;1.45;;
75639;SDS011;64233;51.486;6.332;2023-07-20T06:19:01;1.60;;;1.50;;
75639;SDS011;64233;51.486;6.332;2023-07-20T06:21:26;1.65;;;1.50;;
75639;SDS011;64233;51.486;6.332;2023-07-20T06:23:51;1.38;;;1.10;;
75639;SDS011;64233;51.486;6.332;2023-07-20T06:26:17;3.28;;;1.50;;
75639;SDS011;64233;51.486;6.332;2023-07-20T06:28:42;2.03;;;1.70;;
75639;SDS011;64233;51.486;6.332;2023-07-20T06:31:07;4.15;;;1.98;;
75639;SDS011;64233;51.486;6.332;2023-07-20T06:33:32;2.30;;;1.63;;
75639;SDS011;64233;51.486;6.332;2023-07-20T06:35:59;4.90;;;3.33;;
75639;SDS011;64233;51.486;6.332;2023-07-20T06:38:24;5.10;;;3.45;;
75639;SDS011;64233;51.486;6.332;2023-07-20T06:40:50;3.65;;;2.40;;
75639;SDS011;64233;51.486;6.332;2023-07-20T06:43:16;5.13;;;3.10;;
75639;SDS011;64233;51.486;6.332;2023-07-20T06:45:41;3.40;;;2.53;;
75639;SDS011;64233;51.486;6.332;2023-07-20T06:48:07;2.55;;;2.20;;
75639;SDS011;64233;51.486;6.332;2023-07-20T06:50:32;4.07;;;3.13;;
75639;SDS011;64233;51.486;6.332;2023-07-20T06:52:57;3.53;;;2.95;;
75639;SDS011;64233;51.486;6.332;2023-07-20T06:55:23;5.72;;;2.30;;
75639;SDS011;64233;51.486;6.332;2023-07-20T06:57:49;5.57;;;3.00;;
75639;SDS011;64233;51.486;6.332;2023-07-20T07:00:14;4.68;;;3.45;;
75639;SDS011;64233;51.486;6.332;2023-07-20T07:02:39;2.90;;;1.88;;
75639;SDS011;64233;51.486;6.332;2023-07-20T07:05:05;3.50;;;2.53;;
75639;SDS011;64233;51.486;6.332;2023-07-20T07:07:31;2.00;;;1.77;;
75639;SDS011;64233;51.486;6.332;2023-07-20T07:09:57;1.92;;;1.52;;
75639;SDS011;64233;51.486;6.332;2023-07-20T07:12:22;1.30;;;1.20;;
75639;SDS011;64233;51.486;6.332;2023-07-20T07:14:47;1.52;;;1.30;;
75639;SDS011;64233;51.486;6.332;2023-07-20T07:17:13;3.55;;;2.10;;
75639;SDS011;64233;51.486;6.332;2023-07-20T07:19:39;3.97;;;1.98;;
75639;SDS011;64233;51.486;6.332;2023-07-20T07:22:05;2.70;;;1.95;;
75639;SDS011;64233;51.486;6.332;2023-07-20T07:24:31;6.40;;;2.20;;
75639;SDS011;64233;51.486;6.332;2023-07-20T07:26:59;2.35;;;1.85;;
75639;SDS011;64233;51.486;6.332;2023-07-20T07:29:25;2.83;;;2.10;;
75639;SDS011;64233;51.486;6.332;2023-07-20T07:31:50;1.98;;;1.70;;
75639;SDS011;64233;51.486;6.332;2023-07-20T07:34:16;2.13;;;1.80;;
75639;SDS011;64233;51.486;6.332;2023-07-20T07:36:41;1.90;;;1.58;;
75639;SDS011;64233;51.486;6.332;2023-07-20T07:39:06;2.70;;;2.03;;
75639;SDS011;64233;51.486;6.332;2023-07-20T07:41:31;2.35;;;1.42;;
75639;SDS011;64233;51.486;6.332;2023-07-20T07:43:57;2.33;;;2.10;;
75639;SDS011;64233;51.486;6.332;2023-07-20T07:46:22;2.78;;;1.85;;
75639;SDS011;64233;51.486;6.332;2023-07-20T07:48:47;2.38;;;1.85;;
75639;SDS011;64233;51.486;6.332;2023-07-20T07:51:13;3.45;;;1.58;;
75639;SDS011;64233;51.486;6.332;2023-07-20T07:53:39;1.73;;;1.63;;
75639;SDS011;64233;51.486;6.332;2023-07-20T07:56:06;1.55;;;1.45;;
75639;SDS011;64233;51.486;6.332;2023-07-20T07:58:32;0.98;;;0.80;;
75639;SDS011;64233;51.486;6.332;2023-07-20T08:00:57;4.07;;;1.80;;
75639;SDS011;64233;51.486;6.332;2023-07-20T08:03:22;1.83;;;1.67;;
75639;SDS011;64233;51.486;6.332;2023-07-20T08:05:49;2.55;;;1.33;;
75639;SDS011;64233;51.486;6.332;2023-07-20T08:08:14;1.83;;;1.27;;
75639;SDS011;64233;51.486;6.332;2023-07-20T08:10:39;3.00;;;1.42;;
75639;SDS011;64233;51.486;6.332;2023-07-20T08:13:05;2.53;;;1.50;;
75639;SDS011;64233;51.486;6.332;2023-07-20T08:15:30;2.35;;;1.20;;
75639;SDS011;64233;51.486;6.332;2023-07-20T08:17:55;1.77;;;1.35;;
75639;SDS011;64233;51.486;6.332;2023-07-20T08:20:21;2.70;;;1.42;;
75639;SDS011;64233;51.486;6.332;2023-07-20T08:22:51;1.77;;;1.27;;
75639;SDS011;64233;51.486;6.332;2023-07-20T08:25:17;1.63;;;0.95;;
75639;SDS011;64233;51.486;6.332;2023-07-20T08:27:42;3.20;;;1.33;;
75639;SDS011;64233;51.486;6.332;2023-07-20T08:30:09;2.10;;;1.25;;
75639;SDS011;64233;51.486;6.332;2023-07-20T08:32:34;1.23;;;1.10;;
75639;SDS011;64233;51.486;6.332;2023-07-20T08:35:00;1.77;;;1.20;;
75639;SDS011;64233;51.486;6.332;2023-07-20T08:37:25;1.73;;;1.00;;
75639;SDS011;64233;51.486;6.332;2023-07-20T08:39:51;1.17;;;1.00;;
75639;SDS011;64233;51.486;6.332;2023-07-20T08:42:16;2.37;;;1.03;;
75639;SDS011;64233;51.486;6.332;2023-07-20T08:44:42;0.90;;;0.80;;
75639;SDS011;64233;51.486;6.332;2023-07-20T08:47:09;1.85;;;1.05;;
75639;SDS011;64233;51.486;6.332;2023-07-20T08:49:35;1.60;;;0.75;;
75639;SDS011;64233;51.486;6.332;2023-07-20T08:52:03;2.47;;;1.10;;
75639;SDS011;64233;51.486;6.332;2023-07-20T08:54:29;0.80;;;0.80;;
75639;SDS011;64233;51.486;6.332;2023-07-20T08:57:02;1.27;;;1.10;;
75639;SDS011;64233;51.486;6.332;2023-07-20T08:59:28;1.00;;;0.80;;
75639;SDS011;64233;51.486;6.332;2023-07-20T09:01:56;1.27;;;0.77;;
75639;SDS011;64233;51.486;6.332;2023-07-20T09:04:22;1.10;;;0.93;;
75639;SDS011;64233;51.486;6.332;2023-07-20T09:06:49;1.42;;;1.10;;
75639;SDS011;64233;51.486;6.332;2023-07-20T09:09:14;2.85;;;1.48;;
75639;SDS011;64233;51.486;6.332;2023-07-20T09:11:40;2.28;;;1.10;;
75639;SDS011;64233;51.486;6.332;2023-07-20T09:14:06;1.38;;;1.00;;
75639;SDS011;64233;51.486;6.332;2023-07-20T09:16:32;1.73;;;1.45;;
75639;SDS011;64233;51.486;6.332;2023-07-20T09:19:11;1.35;;;1.00;;
75639;SDS011;64233;51.486;6.332;2023-07-20T09:21:36;0.60;;;0.60;;
75639;SDS011;64233;51.486;6.332;2023-07-20T09:24:02;0.90;;;0.70;;
75639;SDS011;64233;51.486;6.332;2023-07-20T09:26:27;1.02;;;0.70;;
75639;SDS011;64233;51.486;6.332;2023-07-20T09:28:53;0.60;;;0.60;;
75639;SDS011;64233;51.486;6.332;2023-07-20T09:31:19;0.93;;;0.85;;
75639;SDS011;64233;51.486;6.332;2023-07-20T09:33:46;2.10;;;0.80;;
75639;SDS011;64233;51.486;6.332;2023-07-20T09:36:12;0.85;;;0.70;;
75639;SDS011;64233;51.486;6.332;2023-07-20T09:38:38;0.75;;;0.70;;
75639;SDS011;64233;51.486;6.332;2023-07-20T09:41:06;3.63;;;0.55;;
75639;SDS011;64233;51.486;6.332;2023-07-20T09:43:31;0.75;;;0.40;;
75639;SDS011;64233;51.486;6.332;2023-07-20T09:45:58;1.30;;;0.50;;
75639;SDS011;64233;51.486;6.332;2023-07-20T09:48:24;1.27;;;0.50;;
75639;SDS011;64233;51.486;6.332;2023-07-20T09:50:51;0.80;;;0.60;;
75639;SDS011;64233;51.486;6.332;2023-07-20T09:53:17;0.90;;;0.68;;
75639;SDS011;64233;51.486;6.332;2023-07-20T09:55:44;0.70;;;0.70;;
75639;SDS011;64233;51.486;6.332;2023-07-20T09:58:11;0.90;;;0.73;;
75639;SDS011;64233;51.486;6.332;2023-07-20T10:00:37;1.95;;;0.73;;
75639;SDS011;64233;51.486;6.332;2023-07-20T10:03:06;0.98;;;0.82;;
75639;SDS011;64233;51.486;6.332;2023-07-20T10:05:39;1.10;;;0.52;;
75639;SDS011;64233;51.486;6.332;2023-07-20T10:10:36;3.83;;;0.63;;
75639;SDS011;64233;51.486;6.332;2023-07-20T10:13:03;1.90;;;0.60;;
75639;SDS011;64233;51.486;6.332;2023-07-20T10:15:30;0.73;;;0.52;;
75639;SDS011;64233;51.486;6.332;2023-07-20T10:18:08;1.25;;;0.55;;
75639;SDS011;64233;51.486;6.332;2023-07-20T10:20:38;1.08;;;0.60;;
75639;SDS011;64233;51.486;6.332;2023-07-20T10:23:06;0.50;;;0.50;;
75639;SDS011;64233;51.486;6.332;2023-07-20T10:25:32;0.47;;;0.47;;
75639;SDS011;64233;51.486;6.332;2023-07-20T10:28:02;0.73;;;0.60;;
75639;SDS011;64233;51.486;6.332;2023-07-20T10:30:31;1.15;;;0.73;;
75639;SDS011;64233;51.486;6.332;2023-07-20T10:32:59;0.95;;;0.73;;
75639;SDS011;64233;51.486;6.332;2023-07-20T10:35:27;1.55;;;0.90;;
75639;SDS011;64233;51.486;6.332;2023-07-20T10:37:54;0.95;;;0.75;;
75639;SDS011;64233;51.486;6.332;2023-07-20T10:40:31;1.15;;;0.90;;
75639;SDS011;64233;51.486;6.332;2023-07-20T10:43:04;0.93;;;0.70;;
75639;SDS011;64233;51.486;6.332;2023-07-20T10:48:02;1.27;;;0.50;;
75639;SDS011;64233;51.486;6.332;2023-07-20T10:50:28;1.05;;;0.65;;
75639;SDS011;64233;51.486;6.332;2023-07-20T10:53:27;1.13;;;0.65;;
75639;SDS011;64233;51.486;6.332;2023-07-20T10:55:45;0.82;;;0.60;;
75639;SDS011;64233;51.486;6.332;2023-07-20T10:58:15;1.13;;;0.80;;
75639;SDS011;64233;51.486;6.332;2023-07-20T11:01:02;0.55;;;0.55;;
75639;SDS011;64233;51.486;6.332;2023-07-20T11:05:58;0.88;;;0.70;;
75639;SDS011;64233;51.486;6.332;2023-07-20T11:08:40;0.60;;;0.57;;
75639;SDS011;64233;51.486;6.332;2023-07-20T11:16:43;0.50;;;0.50;;
75639;SDS011;64233;51.486;6.332;2023-07-20T11:19:16;0.57;;;0.55;;
75639;SDS011;64233;51.486;6.332;2023-07-20T11:21:42;12.32;;;1.15;;
75639;SDS011;64233;51.486;6.332;2023-07-20T11:24:09;0.65;;;0.45;;
75639;SDS011;64233;51.486;6.332;2023-07-20T11:26:48;0.55;;;0.55;;
75639;SDS011;64233;51.486;6.332;2023-07-20T11:29:17;1.05;;;0.68;;
75639;SDS011;64233;51.486;6.332;2023-07-20T11:31:48;0.70;;;0.52;;
75639;SDS011;64233;51.486;6.332;2023-07-20T11:34:14;0.63;;;0.60;;
75639;SDS011;64233;51.486;6.332;2023-07-20T11:36:41;0.77;;;0.43;;
75639;SDS011;64233;51.486;6.332;2023-07-20T11:39:12;0.77;;;0.63;;
75639;SDS011;64233;51.486;6.332;2023-07-20T11:41:43;4.18;;;0.70;;
75639;SDS011;64233;51.486;6.332;2023-07-20T11:44:09;1.30;;;0.47;;
75639;SDS011;64233;51.486;6.332;2023-07-20T11:46:38;1.05;;;0.63;;
75639;SDS011;64233;51.486;6.332;2023-07-20T11:49:04;0.70;;;0.50;;
75639;SDS011;64233;51.486;6.332;2023-07-20T11:51:30;0.65;;;0.60;;
75639;SDS011;64233;51.486;6.332;2023-07-20T11:53:56;1.95;;;0.65;;
75639;SDS011;64233;51.486;6.332;2023-07-20T11:56:23;1.23;;;0.55;;
75639;SDS011;64233;51.486;6.332;2023-07-20T11:58:49;0.77;;;0.60;;
75639;SDS011;64233;51.486;6.332;2023-07-20T12:01:15;1.95;;;0.63;;
75639;SDS011;64233;51.486;6.332;2023-07-20T12:03:42;0.63;;;0.55;;
75639;SDS011;64233;51.486;6.332;2023-07-20T12:06:08;0.85;;;0.50;;
75639;SDS011;64233;51.486;6.332;2023-07-20T12:08:34;0.50;;;0.50;;
75639;SDS011;64233;51.486;6.332;2023-07-20T12:11:03;1.25;;;0.70;;
75639;SDS011;64233;51.486;6.332;2023-07-20T12:13:40;2.60;;;0.60;;
75639;SDS011;64233;51.486;6.332;2023-07-20T12:16:13;1.10;;;0.50;;
75639;SDS011;64233;51.486;6.332;2023-07-20T12:18:40;0.70;;;0.70;;
75639;SDS011;64233;51.486;6.332;2023-07-20T12:21:06;0.90;;;0.85;;
75639;SDS011;64233;51.486;6.332;2023-07-20T12:23:39;1.00;;;0.63;;
75639;SDS011;64233;51.486;6.332;2023-07-20T12:26:09;0.50;;;0.50;;
75639;SDS011;64233;51.486;6.332;2023-07-20T12:28:38;3.65;;;0.57;;
75639;SDS011;64233;51.486;6.332;2023-07-20T12:31:05;0.60;;;0.60;;
75639;SDS011;64233;51.486;6.332;2023-07-20T12:33:31;1.17;;;0.70;;
75639;SDS011;64233;51.486;6.332;2023-07-20T12:35:56;1.00;;;0.90;;
75639;SDS011;64233;51.486;6.332;2023-07-20T12:38:24;0.95;;;0.80;;
75639;SDS011;64233;51.486;6.332;2023-07-20T12:40:49;1.73;;;0.90;;
75639;SDS011;64233;51.486;6.332;2023-07-20T12:43:14;1.55;;;0.70;;
75639;SDS011;64233;51.486;6.332;2023-07-20T12:45:40;4.00;;;0.90;;
75639;SDS011;64233;51.486;6.332;2023-07-20T12:48:06;1.13;;;0.40;;
75639;SDS011;64233;51.486;6.332;2023-07-20T12:50:31;0.82;;;0.60;;
75639;SDS011;64233;51.486;6.332;2023-07-20T12:52:56;3.30;;;0.93;;
75639;SDS011;64233;51.486;6.332;2023-07-20T12:55:22;2.08;;;0.77;;
75639;SDS011;64233;51.486;6.332;2023-07-20T12:57:47;1.00;;;0.90;;
75639;SDS011;64233;51.486;6.332;2023-07-20T13:00:13;3.33;;;1.45;;
75639;SDS011;64233;51.486;6.332;2023-07-20T13:02:39;0.73;;;0.70;;
75639;SDS011;64233;51.486;6.332;2023-07-20T13:05:05;2.10;;;0.75;;
75639;SDS011;64233;51.486;6.332;2023-07-20T13:07:34;0.77;;;0.60;;
75639;SDS011;64233;51.486;6.332;2023-07-20T13:10:01;1.40;;;0.60;;
75639;SDS011;64233;51.486;6.332;2023-07-20T13:12:29;2.78;;;0.90;;
75639;SDS011;64233;51.486;6.332;2023-07-20T13:14:55;0.95;;;0.68;;
75639;SDS011;64233;51.486;6.332;2023-07-20T13:17:24;1.15;;;0.90;;
75639;SDS011;64233;51.486;6.332;2023-07-20T13:19:49;0.70;;;0.60;;
75639;SDS011;64233;51.486;6.332;2023-07-20T13:22:15;2.17;;;0.80;;
75639;SDS011;64233;51.486;6.332;2023-07-20T13:24:41;0.87;;;0.70;;
75639;SDS011;64233;51.486;6.332;2023-07-20T13:27:06;3.55;;;1.20;;
75639;SDS011;64233;51.486;6.332;2023-07-20T13:29:32;1.15;;;0.70;;
75639;SDS011;64233;51.486;6.332;2023-07-20T13:31:57;1.73;;;0.90;;
75639;SDS011;64233;51.486;6.332;2023-07-20T13:34:23;1.52;;;1.20;;
75639;SDS011;64233;51.486;6.332;2023-07-20T13:36:49;4.72;;;1.10;;
75639;SDS011;64233;51.486;6.332;2023-07-20T13:39:14;0.65;;;0.65;;
75639;SDS011;64233;51.486;6.332;2023-07-20T13:41:39;1.50;;;1.00;;
75639;SDS011;64233;51.486;6.332;2023-07-20T13:44:05;1.20;;;1.00;;
75639;SDS011;64233;51.486;6.332;2023-07-20T13:46:30;1.10;;;0.80;;
75639;SDS011;64233;51.486;6.332;2023-07-20T13:48:55;1.63;;;1.00;;
75639;SDS011;64233;51.486;6.332;2023-07-20T13:51:21;3.97;;;0.90;;
75639;SDS011;64233;51.486;6.332;2023-07-20T13:53:47;1.23;;;1.00;;
75639;SDS011;64233;51.486;6.332;2023-07-20T13:56:12;1.52;;;0.70;;
75639;SDS011;64233;51.486;6.332;2023-07-20T13:58:38;0.70;;;0.70;;
75639;SDS011;64233;51.486;6.332;2023-07-20T14:01:03;1.40;;;1.23;;
75639;SDS011;64233;51.486;6.332;2023-07-20T14:03:29;2.33;;;1.20;;
75639;SDS011;64233;51.486;6.332;2023-07-20T14:05:54;1.20;;;1.10;;
75639;SDS011;64233;51.486;6.332;2023-07-20T14:08:20;1.58;;;1.10;;
75639;SDS011;64233;51.486;6.332;2023-07-20T14:10:46;2.38;;;1.25;;
75639;SDS011;64233;51.486;6.332;2023-07-20T14:13:11;2.22;;;1.10;;
75639;SDS011;64233;51.486;6.332;2023-07-20T14:15:37;1.33;;;0.90;;
75639;SDS011;64233;51.486;6.332;2023-07-20T14:18:03;2.78;;;1.02;;
75639;SDS011;64233;51.486;6.332;2023-07-20T14:20:29;1.73;;;0.88;;
75639;SDS011;64233;51.486;6.332;2023-07-20T14:22:54;1.57;;;1.00;;
75639;SDS011;64233;51.486;6.332;2023-07-20T14:25:19;1.37;;;0.80;;
75639;SDS011;64233;51.486;6.332;2023-07-20T14:27:44;1.63;;;1.10;;
75639;SDS011;64233;51.486;6.332;2023-07-20T14:30:10;2.53;;;1.33;;
75639;SDS011;64233;51.486;6.332;2023-07-20T14:32:35;2.55;;;1.10;;
75639;SDS011;64233;51.486;6.332;2023-07-20T14:35:01;4.37;;;1.50;;
75639;SDS011;64233;51.486;6.332;2023-07-20T14:37:29;5.80;;;1.20;;
75639;SDS011;64233;51.486;6.332;2023-07-20T14:39:54;1.83;;;1.30;;
75639;SDS011;64233;51.486;6.332;2023-07-20T14:42:20;1.10;;;0.87;;
75639;SDS011;64233;51.486;6.332;2023-07-20T14:44:45;1.38;;;1.27;;
75639;SDS011;64233;51.486;6.332;2023-07-20T14:47:10;2.33;;;1.40;;
75639;SDS011;64233;51.486;6.332;2023-07-20T14:49:36;2.30;;;1.50;;
75639;SDS011;64233;51.486;6.332;2023-07-20T14:52:01;2.00;;;1.23;;
75639;SDS011;64233;51.486;6.332;2023-07-20T14:54:27;2.38;;;1.48;;
75639;SDS011;64233;51.486;6.332;2023-07-20T14:56:52;1.60;;;1.13;;
75639;SDS011;64233;51.486;6.332;2023-07-20T14:59:18;1.42;;;1.33;;
75639;SDS011;64233;51.486;6.332;2023-07-20T15:01:44;1.40;;;1.20;;